createdAt,value
2019-03-28T00:02:50.571Z,13.50
2019-03-28T00:08:05.454Z,12.73
2019-03-28T00:13:05.716Z,12.10
2019-03-28T00:18:09.003Z,12.93
2019-03-28T00:23:10.992Z,14.37
2019-03-28T00:28:11.226Z,17.53
2019-03-28T00:33:06.555Z,11.77
2019-03-28T00:38:09.543Z,15.00
2019-03-28T00:43:13.305Z,12.73
2019-03-28T00:48:09.312Z,13.13
2019-03-28T00:53:07.904Z,14.47
2019-03-28T00:58:25.620Z,14.20
2019-03-28T01:03:23.970Z,13.90
2019-03-28T01:08:20.092Z,13.53
2019-03-28T01:13:22.052Z,14.27
2019-03-28T01:18:22.708Z,14.40
2019-03-28T01:23:27.653Z,14.53
2019-03-28T01:28:27.235Z,14.47
2019-03-28T01:33:36.322Z,15.63
2019-03-28T01:38:33.680Z,14.87
2019-03-28T01:43:36.185Z,16.17
2019-03-28T01:48:38.555Z,17.73
2019-03-28T01:53:36.768Z,18.07
2019-03-28T01:58:38.973Z,20.10
2019-03-28T02:03:39.648Z,20.97
2019-03-28T02:08:39.624Z,22.60
2019-03-28T02:13:45.043Z,22.37
2019-03-28T02:18:40.966Z,24.43
2019-03-28T02:23:38.292Z,25.67
2019-03-28T02:28:39.795Z,23.87
2019-03-28T02:33:36.664Z,23.43
2019-03-28T02:38:38.749Z,24.27
2019-03-28T02:43:37.827Z,23.47
2019-03-28T02:48:36.918Z,22.70
2019-03-28T02:53:43.426Z,21.40
2019-03-28T02:58:39.112Z,21.20
2019-03-28T03:03:32.198Z,19.70
2019-03-28T03:08:29.212Z,20.10
2019-03-28T03:13:27.861Z,19.33
2019-03-28T03:18:27.368Z,18.90
2019-03-28T03:23:29.260Z,18.53
2019-03-28T03:28:29.546Z,19.00
2019-03-28T03:33:34.591Z,18.80
2019-03-28T03:38:32.856Z,19.60
2019-03-28T03:43:36.467Z,18.63
2019-03-28T03:48:33.984Z,19.17
2019-03-28T03:53:37.578Z,19.37
2019-03-28T03:58:40.743Z,19.03
2019-03-28T04:03:38.222Z,18.40
2019-03-28T04:08:37.414Z,18.60
2019-03-28T04:13:36.699Z,18.53
2019-03-28T04:18:39.984Z,18.60
2019-03-28T04:23:38.215Z,19.43
2019-03-28T04:28:33.038Z,20.50
2019-03-28T04:38:36.073Z,21.83
2019-03-28T04:43:37.307Z,22.30
2019-03-28T04:48:37.794Z,22.97
2019-03-28T04:53:34.576Z,22.43
2019-03-28T04:58:44.255Z,21.73
2019-03-28T05:08:30.219Z,18.93
2019-03-28T05:13:26.461Z,21.47
2019-03-28T05:18:23.842Z,19.20
2019-03-28T05:23:18.221Z,18.70
2019-03-28T05:28:32.597Z,18.20
2019-03-28T05:33:28.080Z,34.33
2019-03-28T05:38:23.705Z,17.23
2019-03-28T05:43:23.122Z,15.80
2019-03-28T05:48:21.646Z,16.40
2019-03-28T05:53:44.101Z,16.87
2019-03-28T05:58:47.740Z,16.43
2019-03-28T06:03:47.311Z,13.60
2019-03-28T06:08:43.470Z,13.73
2019-03-28T06:13:46.014Z,13.10
2019-03-28T06:18:46.332Z,13.87
2019-03-28T06:23:44.170Z,13.10
2019-03-28T06:28:40.531Z,12.93
2019-03-28T06:33:44.307Z,13.53
2019-03-28T06:38:41.300Z,14.17
2019-03-28T06:43:38.090Z,12.83
2019-03-28T06:48:34.252Z,12.83
2019-03-28T06:53:33.465Z,13.67
2019-03-28T06:58:31.403Z,12.63
2019-03-28T07:03:28.169Z,11.70
2019-03-28T07:08:25.321Z,11.33
2019-03-28T07:13:29.461Z,11.77
2019-03-28T07:23:41.177Z,10.57
2019-03-28T07:28:39.950Z,11.17
2019-03-28T07:33:46.539Z,10.37
2019-03-28T07:38:45.565Z,10.77
2019-03-28T07:43:46.336Z,10.20
2019-03-28T07:48:47.286Z,11.03
2019-03-28T07:53:44.031Z,10.83
2019-03-28T07:58:53.679Z,11.10
2019-03-28T08:03:51.912Z,10.43
2019-03-28T08:08:54.370Z,10.73
2019-03-28T08:13:52.619Z,11.80
2019-03-28T08:18:50.434Z,12.07
2019-03-28T08:23:47.367Z,10.03
2019-03-28T08:33:48.702Z,9.90
2019-03-28T08:38:47.247Z,8.33
2019-03-28T08:43:44.167Z,8.27
2019-03-28T08:48:40.727Z,8.93
2019-03-28T08:53:37.250Z,7.43
2019-03-28T08:58:40.354Z,6.60
2019-03-28T09:03:42.039Z,7.50
2019-03-28T09:08:39.720Z,7.93
2019-03-28T09:13:37.170Z,7.53
2019-03-28T09:18:36.203Z,7.30
2019-03-28T09:23:35.547Z,8.83
2019-03-28T09:28:32.924Z,8.73
2019-03-28T09:33:32.701Z,8.10
2019-03-28T09:38:33.641Z,8.33
2019-03-28T09:43:34.381Z,8.30
2019-03-28T09:48:38.078Z,8.13
2019-03-28T09:53:34.133Z,8.07
2019-03-28T09:58:34.830Z,7.77
2019-03-28T10:03:33.332Z,7.83
2019-03-28T10:13:29.958Z,7.33
2019-03-28T10:23:50.107Z,7.73
2019-03-28T10:28:46.475Z,7.53
2019-03-28T10:33:50.563Z,7.67
2019-03-28T10:38:46.900Z,8.47
2019-03-28T10:43:45.134Z,7.87
2019-03-28T10:48:40.281Z,7.80
2019-03-28T10:53:44.857Z,7.77
2019-03-28T10:58:45.687Z,8.13
2019-03-28T11:03:48.425Z,7.50
2019-03-28T11:08:50.675Z,8.47
2019-03-28T11:13:54.694Z,8.10
2019-03-28T11:18:51.688Z,8.20
2019-03-28T11:23:52.330Z,8.27
2019-03-28T11:28:51.231Z,7.53
2019-03-28T11:33:48.102Z,7.03
2019-03-28T11:38:57.268Z,8.13
2019-03-28T11:43:54.632Z,8.33
2019-03-28T11:54:08.002Z,7.50
2019-03-28T11:59:06.258Z,7.30
2019-03-28T12:09:21.129Z,8.50
2019-03-28T12:14:21.559Z,8.60
2019-03-28T12:19:18.063Z,9.23
2019-03-28T12:24:17.289Z,9.97
2019-03-28T12:29:19.616Z,9.90
2019-03-28T12:34:17.920Z,9.47
2019-03-28T12:39:15.667Z,9.70
2019-03-28T12:44:19.080Z,9.93
2019-03-28T12:49:20.511Z,9.93
2019-03-28T12:54:16.291Z,9.33
2019-03-28T12:59:14.776Z,9.53
2019-03-28T13:04:21.809Z,9.53
2019-03-28T13:09:22.858Z,10.23
2019-03-28T13:14:25.029Z,10.60
2019-03-28T13:19:21.735Z,10.50
2019-03-28T13:24:17.865Z,9.83
2019-03-28T13:29:17.708Z,10.33
2019-03-28T13:34:12.612Z,9.47
2019-03-28T13:39:08.801Z,10.47
2019-03-28T13:44:12.247Z,10.10
2019-03-28T13:49:08.431Z,11.97
2019-03-28T13:54:05.179Z,13.33
2019-03-28T13:59:01.548Z,12.03
2019-03-28T14:04:00.537Z,12.77
2019-03-28T14:08:59.570Z,12.83
2019-03-28T14:14:02.248Z,11.90
2019-03-28T14:18:59.061Z,11.90
2019-03-28T14:24:04.509Z,11.93
2019-03-28T14:29:01.871Z,11.47
2019-03-28T14:34:05.368Z,12.57
2019-03-28T14:39:03.078Z,11.80
2019-03-28T14:44:02.731Z,13.93
2019-03-28T14:49:04.834Z,15.63
2019-03-28T14:53:59.919Z,15.20
2019-03-28T14:58:59.665Z,14.97
2019-03-28T15:03:55.294Z,14.77
2019-03-28T15:08:53.840Z,15.70
2019-03-28T15:13:52.478Z,13.17
2019-03-28T15:18:49.200Z,13.60
2019-03-28T15:23:48.269Z,13.13
2019-03-28T15:28:47.184Z,13.60
2019-03-28T15:33:43.129Z,12.43
2019-03-28T15:38:41.374Z,11.60
2019-03-28T15:43:37.621Z,11.67
2019-03-28T15:48:40.669Z,10.93
2019-03-28T15:53:38.290Z,11.67
2019-03-28T15:58:33.132Z,11.70
2019-03-28T16:03:37.381Z,12.20
2019-03-28T16:08:32.631Z,11.23
2019-03-28T16:13:31.033Z,12.17
2019-03-28T16:18:27.185Z,12.90
2019-03-28T16:23:22.772Z,12.47
2019-03-28T16:28:23.464Z,13.37
2019-03-28T16:33:21.709Z,12.57
2019-03-28T16:38:16.258Z,12.73
2019-03-28T16:43:17.090Z,10.40
2019-03-28T16:48:13.606Z,10.80
2019-03-28T16:53:29.527Z,9.93
2019-03-28T16:58:28.500Z,11.00
2019-03-28T17:03:25.048Z,12.90
2019-03-28T17:08:21.131Z,12.53
2019-03-28T17:13:21.965Z,14.70
2019-03-28T17:18:19.199Z,14.33
2019-03-28T17:23:15.711Z,13.43
2019-03-28T17:28:13.755Z,13.30
2019-03-28T17:33:09.375Z,12.23
2019-03-28T17:38:05.991Z,12.33
2019-03-28T17:43:07.755Z,11.50
2019-03-28T17:48:03.704Z,11.77
2019-03-28T17:53:02.292Z,12.10
2019-03-28T17:57:59.961Z,11.70
2019-03-28T18:03:09.191Z,10.07
2019-03-28T18:08:04.509Z,10.20
2019-03-28T18:13:02.026Z,10.70
2019-03-28T18:17:57.805Z,10.97
2019-03-28T18:22:57.409Z,11.37
2019-03-28T18:27:53.682Z,10.67
2019-03-28T18:32:51.548Z,11.90
2019-03-28T18:37:48.690Z,11.93
2019-03-28T18:42:47.382Z,10.90
2019-03-28T18:47:50.358Z,11.87
2019-03-28T18:52:46.665Z,12.40
2019-03-28T18:57:46.506Z,11.67
2019-03-28T19:02:49.655Z,13.50
2019-03-28T19:07:50.148Z,13.10
2019-03-28T19:12:45.872Z,14.30
2019-03-28T19:17:58.077Z,13.50
2019-03-28T19:22:56.043Z,15.10
2019-03-28T19:28:07.387Z,14.30
2019-03-28T19:33:14.719Z,14.40
2019-03-28T19:38:12.339Z,15.40
2019-03-28T19:43:20.255Z,15.43
2019-03-28T19:48:13.722Z,16.13
2019-03-28T19:53:21.314Z,16.13
2019-03-28T19:58:14.765Z,16.53
2019-03-28T20:03:25.544Z,16.10
2019-03-28T20:08:32.385Z,16.57
2019-03-28T20:19:02.837Z,16.57
2019-03-28T20:24:03.366Z,16.40
2019-03-28T20:29:25.333Z,16.37
2019-03-28T20:34:42.524Z,18.83
2019-03-28T20:39:58.197Z,17.77
2019-03-28T20:45:07.701Z,16.97
2019-03-28T20:50:06.468Z,16.03
2019-03-28T20:55:06.003Z,20.80
2019-03-28T21:00:13.920Z,19.43
2019-03-28T21:05:10.537Z,18.10
2019-03-28T21:10:08.302Z,17.60
2019-03-28T21:15:13.630Z,16.60
2019-03-28T21:20:10.862Z,17.60
2019-03-28T21:25:08.933Z,16.73
2019-03-28T21:30:10.018Z,17.20
2019-03-28T21:35:15.869Z,16.93
2019-03-28T21:40:13.188Z,16.20
2019-03-28T21:45:09.425Z,15.60
2019-03-28T21:50:12.637Z,13.93
2019-03-28T21:55:11.498Z,25.90
2019-03-28T22:00:16.413Z,17.67
2019-03-28T22:05:30.797Z,16.63
2019-03-28T22:10:29.302Z,17.13
2019-03-28T22:15:31.818Z,16.93
2019-03-28T22:20:28.655Z,16.70
2019-03-28T22:25:37.105Z,17.80
2019-03-28T22:30:27.111Z,17.47
2019-03-28T22:35:24.479Z,17.83
2019-03-28T22:40:23.953Z,18.43
2019-03-28T22:45:31.004Z,17.07
2019-03-28T22:50:21.534Z,17.27
2019-03-28T22:55:19.886Z,16.57
2019-03-28T23:00:24.341Z,16.30
2019-03-28T23:05:21.747Z,17.20
2019-03-28T23:10:20.996Z,16.17
2019-03-28T23:15:18.000Z,17.03
2019-03-28T23:20:19.426Z,16.93
2019-03-28T23:25:15.394Z,16.73
2019-03-28T23:30:16.355Z,18.90
2019-03-28T23:35:14.745Z,21.33
2019-03-28T23:40:16.232Z,23.77
2019-03-28T23:45:22.470Z,23.77
2019-03-28T23:50:20.267Z,22.77
2019-03-28T23:55:15.643Z,23.70
